Flight Track Log - Related Links

Times and Time Zones

All times are in EDT time to prevent confusion due to time zone crossing. See the N946CE flight status page for this flight to view local times or setup timezone preferences in your user account.

Time Position Orientation Groundspeed Altitude Reporting Facility
EDT Latitude Longitude Course Direction KTS MPH feet Rate Location/Type
Fri 11:32:25 AM 35.3239 -79.3853 338° Northwest 170 196 3,300  Level Washington Center
Fri 11:33:23 AM 35.3589 -79.4047 336° Northwest 170 196 4,800 1,513 Climbing Washington Center
Fri 11:34:24 AM 35.4083 -79.4222 344° North 165 190 6,300 1,438 Climbing Washington Center
Fri 11:35:24 AM 35.4475 -79.4394 340° North 165 190 7,700 1,537 Climbing Washington Center
Fri 11:36:25 AM 35.5008 -79.4625 341° North 170 196 9,400 1,140 Climbing Washington Center
Fri 11:37:00 AM 35.6330 -79.5415 338° Northwest  Level FlightAware Approximate
Fri 11:37:25 AM 35.5525 -79.4803 344° North 189 217 10,000  Level Washington Center
Fri 11:38:23 AM 35.6122 -79.5061 341° North 214 246 10,000 303 Level Washington Center
Fri 11:39:24 AM 35.6800 -79.5403 338° Northwest 236 272 10,600 1,041 Climbing Washington Center
Fri 11:40:24 AM 35.7314 -79.5631 340° North 224 258 12,100 1,664 Climbing Washington Center
Fri 11:41:23 AM 35.7908 -79.5892 340° North 207 238 13,900 1,550 Climbing Washington Center
Fri 11:42:24 AM 35.8403 -79.6097 341° North 207 238 15,200 1,041 Climbing Washington Center
Fri 11:43:24 AM 35.9083 -79.6361 343° North 217 250 16,000 836 Climbing Washington Center
Fri 11:44:26 AM 35.9658 -79.6622 340° North 235 270 16,900 1,109 Climbing Washington Center
Fri 11:45:23 AM 36.0317 -79.6914 340° North 235 270 18,200 1,333 Climbing Washington Center
Fri 11:46:23 AM 36.0850 -79.7119 343° North 222 255 19,500 1,289 Climbing Washington Center
Fri 11:47:24 AM 36.1486 -79.7436 338° Northwest 227 261 20,800 744 Climbing Washington Center
Fri 11:48:24 AM 36.2067 -79.7597 347° North 232 267 21,000 99 Climbing Washington Center
Fri 11:49:25 AM 36.2864 -79.7433 North 247 284 21,000  Level Washington Center
Fri 11:50:23 AM 36.3536 -79.7289 10° North 262 302 21,000  Level Washington Center
Fri 11:51:24 AM 36.4272 -79.7119 10° North 262 302 21,000  Level Washington Center
Fri 11:52:24 AM 36.5031 -79.6928 11° North 267 307 21,000 298 Level Washington Center
Fri 11:53:25 AM 36.5744 -79.6811 North 267 307 21,600 843 Climbing Washington Center
Fri 11:54:25 AM 36.6461 -79.7236 335° Northwest 245 282 22,700 718 Climbing Washington Center
Fri 11:55:22 AM 36.7117 -79.7583 337° Northwest 245 282 23,000 202 Climbing Washington Center
Fri 11:56:24 AM 36.7814 -79.7906 340° North 250 288 23,100 341 Climbing Washington Center
Fri 11:57:25 AM 36.8531 -79.8256 339° North 263 303 23,700 744 Climbing Washington Center
Fri 11:58:25 AM 36.9208 -79.8606 338° Northwest 269 310 24,600 864 Climbing Washington Center
Fri 11:59:23 AM 36.9781 -79.8897 338° Northwest 251 289 25,400 706 Climbing Washington Center
Fri 12:00:24 PM 37.0439 -79.9194 340° North 246 283 26,000 295 Climbing Washington Center
Fri 12:01:25 PM 37.1114 -79.9517 339° North 251 289 26,000  Level Washington Center
Fri 12:02:25 PM 37.1769 -79.9869 337° Northwest 256 295 26,000  Level Washington Center
Fri 12:03:23 PM 37.2528 -80.0225 340° North 256 295 26,000  Level Washington Center
Fri 12:04:25 PM 37.3225 -80.0578 338° Northwest 256 295 26,000  Level Washington Center
Fri 12:05:26 PM 37.3942 -80.0933 338° Northwest 262 302 26,000  Level Washington Center
Fri 12:06:23 PM 37.4639 -80.1264 339° North 267 307 26,000  Level Washington Center
Fri 12:07:24 PM 37.5356 -80.1619 339° North 267 307 26,000  Level Washington Center
Fri 12:08:25 PM 37.5989 -80.1947 338° Northwest 267 307 26,000  Level Washington Center
Fri 12:09:25 PM 37.6706 -80.2281 340° North 267 307 26,000  Level Washington Center
Fri 12:10:23 PM 37.7400 -80.2664 336° Northwest 267 307 26,000  Level Washington Center
Fri 12:11:24 PM 37.8097 -80.2969 341° North 267 307 26,000  Level Washington Center
Fri 12:12:24 PM 37.8814 -80.3356 337° Northwest 267 307 26,000  Level Washington Center
Fri 12:13:25 PM 37.9611 -80.3750 339° North 267 307 26,000  Level Washington Center
Fri 12:14:23 PM 38.0328 -80.4086 340° North 267 307 26,000  Level Washington Center
Fri 12:15:23 PM 38.1042 -80.4475 337° Northwest 267 307 26,000  Level Washington Center
Fri 12:16:24 PM 38.1758 -80.4836 338° Northwest 267 307 26,000  Level Washington Center
Fri 12:18:00 PM 38.2906 -80.5347 341° North 278 320 26,000  Level Indianapolis Center
Fri 12:19:02 PM 38.3631 -80.5703 339° North 280 322 26,000 -48 Level Indianapolis Center
Fri 12:20:04 PM 38.4336 -80.6056 339° North 275 316 25,900 -48 Descending Indianapolis Center
Fri 12:21:06 PM 38.5058 -80.6428 338° Northwest 280 322 25,900  Level Indianapolis Center
Fri 12:22:08 PM 38.5758 -80.6786 338° Northwest 274 315 25,900  Level Indianapolis Center
Fri 12:23:10 PM 38.6619 -80.7228 338° Northwest 277 319 25,900  Level Indianapolis Center
Fri 12:24:12 PM 38.7353 -80.7606 338° Northwest 282 325 25,900  Level Indianapolis Center
Fri 12:25:13 PM 38.8058 -80.7958 339° North 276 318 25,900  Level Indianapolis Center
Fri 12:26:15 PM 38.8781 -80.8325 338° Northwest 280 322 25,900  Level Indianapolis Center
Fri 12:27:17 PM 38.9492 -80.8708 337° Northwest 279 321 25,900  Level Indianapolis Center
Fri 12:28:19 PM 39.0211 -80.9072 339° North 279 321 25,900 48 Level Indianapolis Center
Fri 12:29:21 PM 39.1069 -80.9514 338° Northwest 278 320 26,000 49 Climbing Indianapolis Center
Fri 12:30:22 PM 39.1778 -80.9892 338° Northwest 278 320 26,000  Level Indianapolis Center
Fri 12:31:24 PM 39.2506 -81.0244 339° North 279 321 26,000  Level Indianapolis Center
Fri 12:32:26 PM 39.3228 -81.0639 337° Northwest 282 325 26,000  Level Indianapolis Center
Fri 12:33:28 PM 39.3942 -81.1019 338° Northwest 279 321 26,000  Level Indianapolis Center
Fri 12:34:30 PM 39.4667 -81.1389 339° North 280 322 26,000  Level Indianapolis Center
Fri 12:34:47 PM 39.4944 -81.1506 342° North 272 313 26,000  Level Cleveland Center
Fri 12:35:48 PM 39.5694 -81.1756 346° North 272 313 26,000  Level Cleveland Center
Fri 12:36:48 PM 39.6464 -81.1950 349° North 272 313 26,000  Level Cleveland Center
Fri 12:37:47 PM 39.7236 -81.2147 349° North 272 313 26,000  Level Cleveland Center
Fri 12:38:48 PM 39.7983 -81.2422 344° North 278 320 26,000  Level Cleveland Center
Fri 12:39:48 PM 39.8753 -81.2647 347° North 278 320 26,000  Level Cleveland Center
Fri 12:40:41 PM 39.9358 -81.2833 347° North 281 323 26,000  Level Indianapolis Center
Fri 12:41:43 PM 40.0150 -81.3094 346° North 282 325 26,000  Level Indianapolis Center
Fri 12:42:45 PM 40.1050 -81.3367 347° North 282 325 26,000  Level Indianapolis Center
Fri 12:43:47 PM 40.1853 -81.3658 344° North 278 320 26,000  Level Cleveland Center
Fri 12:44:48 PM 40.2539 -81.4156 331° Northwest 278 320 26,000  Level Cleveland Center
Fri 12:45:48 PM 40.3222 -81.4600 334° Northwest 278 320 26,000 -50 Level Cleveland Center
Fri 12:46:47 PM 40.3886 -81.5072 332° Northwest 278 320 25,900 -50 Descending Cleveland Center
Fri 12:47:47 PM 40.4592 -81.5544 333° Northwest 278 320 25,900  Level Cleveland Center
Fri 12:48:47 PM 40.5275 -81.5992 334° Northwest 278 320 25,900  Level Cleveland Center
Fri 12:49:47 PM 40.5917 -81.6414 333° Northwest 278 320 25,900  Level Cleveland Center
Fri 12:50:48 PM 40.6600 -81.6889 332° Northwest 278 320 25,900 50 Level Cleveland Center
Fri 12:51:48 PM 40.7261 -81.7419 329° Northwest 278 320 26,000 50 Climbing Cleveland Center
Fri 12:52:47 PM 40.7925 -81.7925 330° Northwest 278 320 26,000  Level Cleveland Center
Fri 12:53:47 PM 40.8586 -81.8458 329° Northwest 278 320 26,000  Level Cleveland Center
Fri 12:54:47 PM 40.9267 -81.8967 331° Northwest 278 320 26,000  Level Cleveland Center
Fri 12:55:47 PM 40.9969 -81.9531 329° Northwest 272 313 26,000 -99 Level Cleveland Center
Fri 12:56:48 PM 41.0611 -82.0042 329° Northwest 272 313 25,800 -900 Descending Cleveland Center
Fri 12:57:47 PM 41.1292 -82.0497 333° Northwest 272 313 24,200 -1,160 Descending Cleveland Center
Fri 12:58:47 PM 41.1931 -82.1008 329° Northwest 277 319 23,500 -1,190 Descending Cleveland Center
Fri 12:59:48 PM 41.2550 -82.1547 327° Northwest 264 304 21,800 -1,700 Descending Cleveland Center
Fri 01:00:47 PM 41.3211 -82.2061 330° Northwest 269 310 20,100 -1,550 Descending Cleveland Center
Fri 01:01:48 PM 41.3847 -82.2575 329° Northwest 275 316 18,700 -1,438 Descending Cleveland Center
Fri 01:02:48 PM 41.4528 -82.3147 328° Northwest 286 329 17,200 -1,613 Descending Cleveland Center
Fri 01:03:47 PM 41.5228 -82.3692 330° Northwest 297 342 15,500 -1,714 Descending Cleveland Center
Fri 01:04:47 PM 41.5928 -82.4239 330° Northwest 292 336 13,800 -3,223 Descending Cleveland Center
Fri 01:05:48 PM 41.6586 -82.4758 329° Northwest 282 325 9,000 -1,800 Descending Cleveland Center
Fri 01:06:07 PM 41.6875 -82.5017 326° Northwest 272 313 11,400 1,500 Climbing Cleveland Center
Fri 01:06:48 PM 41.7225 -82.5278 331° Northwest 277 319 10,500 -1,672 Descending Cleveland Center
Fri 01:07:08 PM 41.7533 -82.5539 328° Northwest 276 318 9,700 -1,424 Descending Cleveland Center
Fri 01:07:47 PM 41.7861 -82.5825 327° Northwest 277 319 9,100 -689 Descending Cleveland Center
Fri 01:08:09 PM 41.8169 -82.6058 331° Northwest 256 295 9,000 -98 Descending Cleveland Center
Fri 01:08:48 PM 41.8478 -82.6292 331° Northwest 266 306 9,000  Level Cleveland Center
Fri 01:09:10 PM 41.8769 -82.6411 343° North 240 276 9,000  Level Cleveland Center
Fri 01:09:48 PM 41.9081 -82.6478 351° North 241 277 9,000  Level Cleveland Center
Fri 01:10:11 PM 41.9411 -82.6572 348° North 234 269 9,000  Level Cleveland Center
Fri 01:10:47 PM 41.9744 -82.6667 348° North 231 266 9,000 -393 Level Cleveland Center
Fri 01:11:12 PM 42.0072 -82.6903 332° Northwest 253 291 8,600 -689 Descending Cleveland Center
Fri 01:11:48 PM 42.0339 -82.7133 327° Northwest 231 266 8,300 -787 Descending Cleveland Center
Fri 01:12:13 PM 42.0667 -82.7453 324° Northwest 257 296 7,800 -712 Descending Cleveland Center
Fri 01:12:47 PM 42.0914 -82.7658 328° Northwest 242 278 7,600 -600 Descending Cleveland Center
Fri 01:13:13 PM 42.1242 -82.7919 329° Northwest 240 276 7,200 -600 Descending Cleveland Center
Fri 01:13:47 PM 42.1511 -82.8069 338° Northwest 247 284 7,000 -492 Descending Cleveland Center
Fri 01:14:14 PM 42.1861 -82.8194 345° North 235 270 6,700 -492 Descending Cleveland Center
Fri 01:14:48 PM 42.2131 -82.8289 345° North 237 273 6,500 -590 Descending Cleveland Center
Fri 01:15:15 PM 42.2483 -82.8439 343° North 228 262 6,100 -610 Descending Cleveland Center
Fri 01:15:47 PM 42.2731 -82.8561 340° North 226 260 5,900 -590 Descending Cleveland Center
Fri 01:16:16 PM 42.3061 -82.8769 335° Northwest 210 242 5,500 -667 Descending Cleveland Center
Fri 01:17:17 PM 42.3617 -82.9069 338° Northwest 210 242 4,900 -541 Descending Cleveland Center
Fri 01:18:18 PM 42.4153 -82.9344 339° North 204 235 4,400 -443 Descending Cleveland Center
Fri 01:19:19 PM 42.4689 -82.9589 341° North 201 231 4,000 -197 Descending Cleveland Center
Fri 01:20:20 PM 42.5097 -83.0028 322° Northwest 204 235 4,000  Level Cleveland Center
Fri 01:21:21 PM 42.5522 -83.0636 313° West 203 234 4,000  Level Cleveland Center
Fri 01:22:21 PM 42.5842 -83.1297 303° West 209 241 4,000 -298 Level Cleveland Center
Fri 01:23:22 PM 42.6014 -83.2036 288° West 215 247 3,400 -492 Descending Cleveland Center
Fri 01:24:23 PM 42.6100 -83.2747 279° West 179 206 3,000 -197 Descending Cleveland Center
Fri 01:25:24 PM 42.6086 -83.3394 268° West 168 193 3,000  Level Cleveland Center
Fri 01:26:25 PM 42.6028 -83.4014 263° West 148 170 3,000  Level Cleveland Center
Fri 01:27:26 PM 42.5972 -83.4575 262° West 146 168 3,000  Level Cleveland Center
Fri 01:28:27 PM 42.5939 -83.5136 265° West 155 178 3,000  Level Cleveland Center

Login

Don't have an account? Register now (free) for customized features, flight alerts, and more!